createdAt,value
2019-01-18T00:00:49.569Z,93490.02
2019-01-18T00:03:16.917Z,93484.31
2019-01-18T00:05:44.282Z,93483.75
2019-01-18T00:08:11.647Z,93490.81
2019-01-18T00:10:39.021Z,93484.56
2019-01-18T00:13:06.396Z,93489.99
2019-01-18T00:15:33.744Z,93496.27
2019-01-18T00:18:01.106Z,93498.84
2019-01-18T00:20:28.533Z,93499.37
2019-01-18T00:22:55.967Z,93497.25
2019-01-18T00:25:23.353Z,93502.41
2019-01-18T00:27:50.927Z,93500.77
2019-01-18T00:30:18.354Z,93508.07
2019-01-18T00:32:45.695Z,93509.30
2019-01-18T00:35:13.046Z,93517.56
2019-01-18T00:37:40.505Z,93515.94
2019-01-18T00:40:08.158Z,93511.44
2019-01-18T00:42:35.514Z,93503.23
2019-01-18T00:45:03.695Z,93497.50
2019-01-18T00:47:31.442Z,93504.91
2019-01-18T00:49:58.781Z,93502.36
2019-01-18T00:52:26.147Z,93513.98
2019-01-18T00:54:53.720Z,93517.25
2019-01-18T00:57:21.085Z,93519.92
2019-01-18T00:59:48.443Z,93523.45
2019-01-18T01:02:15.830Z,93540.47
2019-01-18T01:04:43.169Z,93542.80
2019-01-18T01:07:10.509Z,93547.31
2019-01-18T01:09:37.886Z,93545.98
2019-01-18T01:12:06.535Z,93553.45
2019-01-18T01:14:33.897Z,93548.97
2019-01-18T01:17:01.371Z,93545.31
2019-01-18T01:19:29.005Z,93550.52
2019-01-18T01:21:56.342Z,93544.02
2019-01-18T01:24:23.700Z,93539.49
2019-01-18T01:26:51.085Z,93544.02
2019-01-18T01:29:18.473Z,93544.87
2019-01-18T01:31:45.817Z,93558.59
2019-01-18T01:34:13.244Z,93558.48
2019-01-18T01:36:40.629Z,93564.17
2019-01-18T01:39:10.421Z,93558.33
2019-01-18T01:41:37.894Z,93567.33
2019-01-18T01:44:05.275Z,93565.11
2019-01-18T01:46:32.673Z,93564.17
2019-01-18T01:49:00.094Z,93569.82
2019-01-18T01:51:27.437Z,93568.29
2019-01-18T01:53:54.852Z,93568.02
2019-01-18T01:56:22.207Z,93566.41
2019-01-18T01:58:49.562Z,93559.72
2019-01-18T02:01:16.970Z,93561.36
2019-01-18T02:03:44.377Z,93560.14
2019-01-18T02:06:11.787Z,93569.66
2019-01-18T02:08:39.279Z,93573.86
2019-01-18T02:11:06.621Z,93576.73
2019-01-18T02:13:33.978Z,93586.09
2019-01-18T02:16:01.353Z,93587.25
2019-01-18T02:18:28.704Z,93592.30
2019-01-18T02:20:56.168Z,93594.78
2019-01-18T02:23:23.537Z,93595.20
2019-01-18T02:25:50.897Z,93601.98
2019-01-18T02:28:20.043Z,93606.36
2019-01-18T02:30:47.404Z,93612.04
2019-01-18T02:33:14.741Z,93614.27
2019-01-18T02:35:42.154Z,93618.64
2019-01-18T02:38:09.514Z,93614.61
2019-01-18T02:40:36.878Z,93620.27
2019-01-18T02:43:04.251Z,93614.70
2019-01-18T02:45:31.603Z,93613.06
2019-01-18T02:47:58.994Z,93615.98
2019-01-18T02:50:26.338Z,93623.91
2019-01-18T02:52:53.727Z,93624.30
2019-01-18T02:55:28.522Z,93622.59
2019-01-18T02:57:50.350Z,93628.32
2019-01-18T03:00:18.896Z,93634.86
2019-01-18T03:02:46.364Z,93630.38
2019-01-18T03:05:14.225Z,93628.94
2019-01-18T03:07:41.612Z,93622.75
2019-01-18T03:10:11.180Z,93619.66
2019-01-18T03:12:38.565Z,93626.53
2019-01-18T03:15:05.946Z,93632.77
2019-01-18T03:17:33.337Z,93637.75
2019-01-18T03:20:00.770Z,93638.27
2019-01-18T03:22:28.110Z,93648.05
2019-01-18T03:24:55.502Z,93644.03
2019-01-18T03:27:22.901Z,93646.34
2019-01-18T03:29:50.334Z,93649.06
2019-01-18T03:32:17.702Z,93642.20
2019-01-18T03:34:45.155Z,93646.41
2019-01-18T03:37:12.629Z,93652.77
2019-01-18T03:39:39.984Z,93649.75
2019-01-18T03:42:07.342Z,93653.27
2019-01-18T03:44:34.682Z,93660.78
2019-01-18T03:47:02.119Z,93666.19
2019-01-18T03:49:29.474Z,93672.97
2019-01-18T03:51:56.818Z,93685.56
2019-01-18T03:54:24.491Z,93686.44
2019-01-18T03:56:51.851Z,93686.20
2019-01-18T03:59:19.209Z,93686.64
2019-01-18T04:01:46.578Z,93688.36
2019-01-18T04:04:13.928Z,93688.44
2019-01-18T04:06:41.366Z,93686.95
2019-01-18T04:09:08.751Z,93691.37
2019-01-18T04:11:36.111Z,93683.56
2019-01-18T04:14:03.706Z,93687.14
2019-01-18T04:16:31.245Z,93683.75
2019-01-18T04:18:58.701Z,93683.43
2019-01-18T04:21:26.045Z,93697.23
2019-01-18T04:23:53.447Z,93692.08
2019-01-18T04:26:20.794Z,93694.34
2019-01-18T04:28:48.181Z,93699.36
2019-01-18T04:31:15.554Z,93702.64
2019-01-18T04:33:42.882Z,93701.70
2019-01-18T04:36:10.278Z,93702.38
2019-01-18T04:38:37.690Z,93695.36
2019-01-18T04:41:05.156Z,93698.87
2019-01-18T04:43:32.530Z,93699.57
2019-01-18T04:45:59.904Z,93701.27
2019-01-18T04:48:27.254Z,93702.58
2019-01-18T04:50:54.638Z,93710.17
2019-01-18T04:53:22.105Z,93707.63
2019-01-18T04:55:49.562Z,93707.18
2019-01-18T04:58:16.924Z,93713.87
2019-01-18T05:00:44.313Z,93721.58
2019-01-18T05:03:11.896Z,93728.61
2019-01-18T05:05:39.310Z,93732.22
2019-01-18T05:08:06.685Z,93734.58
2019-01-18T05:10:34.042Z,93736.70
2019-01-18T05:13:01.694Z,93748.16
2019-01-18T05:15:30.088Z,93744.86
2019-01-18T05:17:57.440Z,93746.13
2019-01-18T05:20:24.934Z,93746.10
2019-01-18T05:22:52.314Z,93753.69
2019-01-18T05:25:19.664Z,93758.34
2019-01-18T05:27:47.004Z,93756.44
2019-01-18T05:30:15.951Z,93760.42
2019-01-18T05:32:43.313Z,93757.59
2019-01-18T05:35:10.806Z,93752.35
2019-01-18T05:37:38.149Z,93749.78
2019-01-18T05:40:06.305Z,93741.97
2019-01-18T05:42:33.660Z,93745.61
2019-01-18T05:45:00.993Z,93750.85
2019-01-18T05:47:28.385Z,93749.47
2019-01-18T05:49:55.744Z,93758.61
2019-01-18T05:52:23.125Z,93755.70
2019-01-18T05:54:50.470Z,93750.93
2019-01-18T05:57:17.855Z,93752.15
2019-01-18T05:59:45.238Z,93757.29
2019-01-18T06:02:12.635Z,93770.36
2019-01-18T06:04:40.640Z,93776.59
2019-01-18T06:07:08.125Z,93777.05
2019-01-18T06:09:35.561Z,93783.59
2019-01-18T06:12:02.918Z,93787.44
2019-01-18T06:14:30.289Z,93778.42
2019-01-18T06:16:57.660Z,93777.62
2019-01-18T06:19:25.026Z,93778.08
2019-01-18T06:21:52.406Z,93773.19
2019-01-18T06:24:19.787Z,93779.00
2019-01-18T06:26:47.137Z,93775.93
2019-01-18T06:29:14.545Z,93774.26
2019-01-18T06:31:41.889Z,93773.20
2019-01-18T06:34:09.311Z,93779.80
2019-01-18T06:36:36.705Z,93778.33
2019-01-18T06:39:05.730Z,93786.06
2019-01-18T06:41:39.654Z,93793.53
2019-01-18T06:44:07.090Z,93792.60
2019-01-18T06:46:34.510Z,93801.02
2019-01-18T06:49:03.611Z,93798.19
2019-01-18T06:51:30.957Z,93799.83
2019-01-18T06:53:58.673Z,93797.70
2019-01-18T06:56:26.013Z,93794.19
2019-01-18T06:58:53.407Z,93794.20
2019-01-18T07:01:20.795Z,93799.56
2019-01-18T07:03:48.138Z,93815.95
2019-01-18T07:06:15.493Z,93812.09
2019-01-18T07:08:42.882Z,93812.77
2019-01-18T07:11:10.239Z,93815.47
2019-01-18T07:13:37.602Z,93814.64
2019-01-18T07:16:04.983Z,93818.86
2019-01-18T07:18:32.358Z,93834.48
2019-01-18T07:20:59.841Z,93829.69
2019-01-18T07:23:27.223Z,93834.72
2019-01-18T07:25:54.887Z,93830.60
2019-01-18T07:28:22.342Z,93831.53
2019-01-18T07:30:49.685Z,93840.89
2019-01-18T07:33:17.060Z,93841.59
2019-01-18T07:35:44.429Z,93847.03
2019-01-18T07:38:11.804Z,93848.20
2019-01-18T07:40:39.247Z,93856.64
2019-01-18T07:43:06.619Z,93863.65
2019-01-18T07:45:34.198Z,93866.05
2019-01-18T07:48:01.545Z,93865.45
2019-01-18T07:50:28.936Z,93861.34
2019-01-18T07:52:56.500Z,93869.73
2019-01-18T07:55:23.829Z,93870.81
2019-01-18T07:57:51.294Z,93867.61
2019-01-18T08:00:22.875Z,93868.05
2019-01-18T08:02:50.248Z,93864.26
2019-01-18T08:05:17.814Z,93866.34
2019-01-18T08:07:45.158Z,93869.80
2019-01-18T08:10:13.410Z,93874.03
2019-01-18T08:12:40.850Z,93872.91
2019-01-18T08:15:09.474Z,93880.17
2019-01-18T08:17:36.862Z,93881.53
2019-01-18T08:20:05.238Z,93878.06
2019-01-18T08:22:32.601Z,93880.25
2019-01-18T08:24:59.956Z,93884.55
2019-01-18T08:27:27.349Z,93885.66
2019-01-18T08:29:54.697Z,93891.83
2019-01-18T08:32:22.048Z,93897.90
2019-01-18T08:34:49.749Z,93904.47
2019-01-18T08:37:17.107Z,93902.72
2019-01-18T08:39:44.458Z,93908.88
2019-01-18T08:42:11.844Z,93913.34
2019-01-18T08:44:39.218Z,93911.70
2019-01-18T08:47:06.679Z,93914.50
2019-01-18T08:49:34.040Z,93909.78
2019-01-18T08:52:01.421Z,93919.42
2019-01-18T08:54:28.774Z,93921.86
2019-01-18T08:56:56.143Z,93927.88
2019-01-18T08:59:23.503Z,93922.84
2019-01-18T09:01:50.881Z,93928.50
2019-01-18T09:04:18.252Z,93930.21
2019-01-18T09:06:45.605Z,93929.63
2019-01-18T09:09:13.029Z,93926.91
2019-01-18T09:11:40.655Z,93929.30
2019-01-18T09:14:08.016Z,93933.02
2019-01-18T09:16:35.348Z,93933.29
2019-01-18T09:19:02.751Z,93922.21
2019-01-18T09:21:30.127Z,93930.74
2019-01-18T09:23:57.466Z,93924.06
2019-01-18T09:26:24.853Z,93929.30
2019-01-18T09:28:52.567Z,93938.27
2019-01-18T09:31:19.912Z,93939.41
2019-01-18T09:33:47.287Z,93942.92
2019-01-18T09:36:14.689Z,93942.37
2019-01-18T09:38:42.535Z,93941.91
2019-01-18T09:41:10.015Z,93947.65
2019-01-18T09:43:37.357Z,93949.68
2019-01-18T09:46:05.855Z,93950.70
2019-01-18T09:48:33.229Z,93949.16
2019-01-18T09:51:00.675Z,93948.70
2019-01-18T09:53:28.019Z,93946.59
2019-01-18T09:55:55.389Z,93951.91
2019-01-18T09:58:22.773Z,93947.36
2019-01-18T10:00:50.157Z,93949.94
2019-01-18T10:03:17.593Z,93949.33
2019-01-18T10:05:44.966Z,93942.17
2019-01-18T10:08:12.312Z,93944.00
2019-01-18T10:10:39.761Z,93945.72
2019-01-18T10:13:07.142Z,93943.56
2019-01-18T10:15:43.285Z,93948.48
2019-01-18T10:18:11.025Z,93936.25
2019-01-18T10:20:38.381Z,93937.78
2019-01-18T10:23:05.800Z,93935.28
2019-01-18T10:25:33.189Z,93932.63
2019-01-18T10:28:01.359Z,93941.31
2019-01-18T10:30:28.716Z,93940.79
2019-01-18T10:32:56.486Z,93936.87
2019-01-18T10:35:24.002Z,93938.91
2019-01-18T10:37:51.370Z,93934.86
2019-01-18T10:40:18.756Z,93936.63
2019-01-18T10:42:46.573Z,93937.96
2019-01-18T10:45:14.176Z,93932.81
2019-01-18T10:47:41.687Z,93937.86
2019-01-18T10:50:10.587Z,93933.80
2019-01-18T10:52:37.973Z,93932.69
2019-01-18T10:55:05.742Z,93933.11
2019-01-18T10:57:33.141Z,93930.17
2019-01-18T11:00:00.514Z,93933.80
2019-01-18T11:02:28.239Z,93926.72
2019-01-18T11:04:55.705Z,93925.59
2019-01-18T11:07:23.148Z,93925.13
2019-01-18T11:09:50.518Z,93916.72
2019-01-18T11:12:17.891Z,93918.16
2019-01-18T11:14:45.234Z,93914.00
2019-01-18T11:17:12.599Z,93916.44
2019-01-18T11:19:39.968Z,93909.58
2019-01-18T11:22:10.382Z,93914.55
2019-01-18T11:24:37.761Z,93909.49
2019-01-18T11:27:05.142Z,93906.09
2019-01-18T11:29:32.510Z,93900.82
2019-01-18T11:31:59.846Z,93902.72
2019-01-18T11:34:27.427Z,93895.50
2019-01-18T11:36:56.479Z,93898.23
2019-01-18T11:39:24.041Z,93903.80
2019-01-18T11:41:51.421Z,93905.43
2019-01-18T11:44:18.840Z,93899.58
2019-01-18T11:46:46.226Z,93894.41
2019-01-18T11:49:13.578Z,93894.55
2019-01-18T11:51:40.951Z,93896.02
2019-01-18T11:54:08.293Z,93892.91
2019-01-18T11:56:35.686Z,93895.07
2019-01-18T11:59:03.052Z,93892.62
2019-01-18T12:01:30.483Z,93885.20
2019-01-18T12:03:57.881Z,93881.59
2019-01-18T12:06:25.378Z,93885.81
2019-01-18T12:08:52.742Z,93879.70
2019-01-18T12:11:20.201Z,93881.89
2019-01-18T12:13:47.574Z,93875.38
2019-01-18T12:16:15.044Z,93871.54
2019-01-18T12:18:42.435Z,93868.50
2019-01-18T12:21:09.845Z,93865.09
2019-01-18T12:23:37.228Z,93862.25
2019-01-18T12:26:04.610Z,93859.92
2019-01-18T12:28:31.978Z,93859.63
2019-01-18T12:30:59.356Z,93857.26
2019-01-18T12:33:26.779Z,93853.50
2019-01-18T12:35:54.177Z,93855.94
2019-01-18T12:38:21.560Z,93864.66
2019-01-18T12:40:49.044Z,93862.86
2019-01-18T12:43:16.517Z,93859.59
2019-01-18T12:45:43.883Z,93859.78
2019-01-18T12:48:11.258Z,93864.83
2019-01-18T12:50:39.778Z,93855.55
2019-01-18T12:53:07.187Z,93857.12
2019-01-18T12:55:34.586Z,93858.72
2019-01-18T12:58:01.983Z,93858.06
2019-01-18T13:00:29.438Z,93860.78
2019-01-18T13:02:56.905Z,93862.80
2019-01-18T13:05:25.674Z,93859.66
2019-01-18T13:07:53.259Z,93865.80
2019-01-18T13:10:20.855Z,93861.86
2019-01-18T13:12:48.237Z,93861.69
2019-01-18T13:15:20.383Z,93859.32
2019-01-18T13:17:47.811Z,93864.11
2019-01-18T13:20:15.201Z,93857.94
2019-01-18T13:22:42.559Z,93849.17
2019-01-18T13:25:10.798Z,93850.11
2019-01-18T13:27:38.201Z,93854.12
2019-01-18T13:30:07.461Z,93852.06
2019-01-18T13:32:34.847Z,93850.13
2019-01-18T13:35:02.272Z,93854.88
2019-01-18T13:37:29.638Z,93858.83
2019-01-18T13:39:57.055Z,93860.53
2019-01-18T13:42:24.429Z,93860.02
2019-01-18T13:44:51.951Z,93871.22
2019-01-18T13:47:20.086Z,93870.86
2019-01-18T13:49:47.523Z,93864.73
2019-01-18T13:52:14.994Z,93869.88
2019-01-18T13:54:42.386Z,93860.22
2019-01-18T13:57:12.276Z,93866.08
2019-01-18T13:59:39.051Z,93861.61
2019-01-18T14:02:06.414Z,93862.22
2019-01-18T14:04:33.774Z,93860.31
2019-01-18T14:07:01.245Z,93855.87
2019-01-18T14:09:28.638Z,93859.27
2019-01-18T14:11:56.039Z,93861.75
2019-01-18T14:14:23.596Z,93865.39
2019-01-18T14:16:51.143Z,93859.91
2019-01-18T14:19:18.530Z,93859.56
2019-01-18T14:21:45.918Z,93862.48
2019-01-18T14:24:13.283Z,93864.75
2019-01-18T14:26:40.678Z,93861.27
2019-01-18T14:29:08.027Z,93860.13
2019-01-18T14:31:35.390Z,93863.95
2019-01-18T14:34:02.793Z,93857.28
2019-01-18T14:36:30.168Z,93858.78
2019-01-18T14:38:57.602Z,93856.73
2019-01-18T14:41:24.957Z,93856.80
2019-01-18T14:43:52.398Z,93851.70
2019-01-18T14:46:19.980Z,93851.96
2019-01-18T14:48:47.388Z,93856.65
2019-01-18T14:51:14.789Z,93856.30
2019-01-18T14:53:42.198Z,93848.33
2019-01-18T14:56:09.649Z,93851.62
2019-01-18T14:58:37.104Z,93857.23
2019-01-18T15:01:04.570Z,93859.69
2019-01-18T15:03:31.919Z,93852.52
2019-01-18T15:05:59.410Z,93853.19
2019-01-18T15:08:26.886Z,93860.30
2019-01-18T15:10:54.346Z,93852.02
2019-01-18T15:13:21.792Z,93855.61
2019-01-18T15:15:50.874Z,93856.66
2019-01-18T15:18:18.839Z,93854.09
2019-01-18T15:20:46.346Z,93853.55
2019-01-18T15:23:13.879Z,93865.07
2019-01-18T15:25:41.288Z,93859.48
2019-01-18T15:28:08.663Z,93854.48
2019-01-18T15:30:36.121Z,93860.42
2019-01-18T15:33:09.136Z,93858.09
2019-01-18T15:35:34.043Z,93856.88
2019-01-18T15:38:01.500Z,93852.61
2019-01-18T15:40:29.601Z,93854.14
2019-01-18T15:42:59.065Z,93854.41
2019-01-18T15:45:26.935Z,93852.84
2019-01-18T15:47:54.366Z,93850.06
2019-01-18T15:50:25.831Z,93847.38
2019-01-18T15:52:53.404Z,93843.27
2019-01-18T15:55:20.896Z,93851.70
2019-01-18T15:57:48.274Z,93848.19
2019-01-18T16:00:20.290Z,93845.55
2019-01-18T16:02:47.746Z,93846.82
2019-01-18T16:05:15.205Z,93842.41
2019-01-18T16:07:42.755Z,93843.34
2019-01-18T16:10:10.454Z,93844.22
2019-01-18T16:12:37.855Z,93841.50
2019-01-18T16:15:06.454Z,93844.16
2019-01-18T16:17:33.962Z,93844.95
2019-01-18T16:20:01.406Z,93839.23
2019-01-18T16:22:28.831Z,93837.86
2019-01-18T16:24:57.068Z,93835.20
2019-01-18T16:27:24.471Z,93827.36
2019-01-18T16:29:52.251Z,93834.63
2019-01-18T16:32:19.721Z,93829.41
2019-01-18T16:34:47.118Z,93827.92
2019-01-18T16:37:14.522Z,93826.91
2019-01-18T16:39:42.070Z,93833.03
2019-01-18T16:42:10.517Z,93826.69
2019-01-18T16:44:37.951Z,93832.27
2019-01-18T16:47:05.347Z,93828.66
2019-01-18T16:49:32.735Z,93821.72
2019-01-18T16:52:00.292Z,93822.33
2019-01-18T16:54:27.765Z,93820.20
2019-01-18T16:56:55.234Z,93818.82
2019-01-18T16:59:22.601Z,93816.79
2019-01-18T17:01:50.078Z,93814.23
2019-01-18T17:04:17.435Z,93815.52
2019-01-18T17:06:44.900Z,93812.67
2019-01-18T17:09:12.598Z,93813.32
2019-01-18T17:11:40.049Z,93816.88
2019-01-18T17:14:07.444Z,93813.20
2019-01-18T17:16:34.873Z,93811.05
2019-01-18T17:19:02.291Z,93814.63
2019-01-18T17:21:29.755Z,93815.73
2019-01-18T17:23:58.879Z,93812.01
2019-01-18T17:26:26.538Z,93803.57
2019-01-18T17:28:53.986Z,93812.67
2019-01-18T17:31:21.406Z,93803.13
2019-01-18T17:33:48.758Z,93800.95
2019-01-18T17:36:18.708Z,93801.72
2019-01-18T17:39:04.704Z,93801.89
2019-01-18T17:41:38.081Z,93808.45
2019-01-18T17:44:24.001Z,93800.04
2019-01-18T17:47:04.124Z,93804.30
2019-01-18T17:49:45.859Z,93799.45
2019-01-18T17:52:31.586Z,93801.77
2019-01-18T17:55:17.169Z,93801.41
2019-01-18T17:58:04.648Z,93804.34
2019-01-18T18:01:03.994Z,93804.69
2019-01-18T18:04:03.038Z,93805.70
2019-01-18T18:06:50.053Z,93799.80
2019-01-18T18:09:30.107Z,93802.95
2019-01-18T18:12:19.744Z,93799.45
2019-01-18T18:15:12.435Z,93800.45
2019-01-18T18:17:49.358Z,93796.23
2019-01-18T18:20:36.226Z,93795.14
2019-01-18T18:23:21.941Z,93793.64
2019-01-18T18:26:07.871Z,93791.33
2019-01-18T18:29:12.880Z,93794.38
2019-01-18T18:32:05.823Z,93792.74
2019-01-18T18:35:04.723Z,93787.83
2019-01-18T18:37:54.715Z,93786.70
2019-01-18T18:40:44.658Z,93783.16
2019-01-18T18:43:20.100Z,93788.53
2019-01-18T18:46:19.099Z,93786.56
2019-01-18T18:49:09.132Z,93789.50
2019-01-18T18:51:45.396Z,93785.63
2019-01-18T18:54:32.399Z,93784.61
2019-01-18T18:57:31.642Z,93776.92
2019-01-18T19:00:11.160Z,93781.58
2019-01-18T19:02:48.881Z,93780.05
2019-01-18T19:05:41.702Z,93776.94
2019-01-18T19:08:32.666Z,93776.44
2019-01-18T19:11:10.575Z,93773.55
2019-01-18T19:13:56.324Z,93763.03
2019-01-18T19:16:38.334Z,93765.25
2019-01-18T19:19:19.629Z,93762.92
2019-01-18T19:22:00.150Z,93760.11
2019-01-18T19:24:45.616Z,93758.27
2019-01-18T19:27:31.340Z,93759.66
2019-01-18T19:30:18.198Z,93757.55
2019-01-18T19:32:53.882Z,93756.39
2019-01-18T19:35:43.210Z,93748.69
2019-01-18T19:38:29.220Z,93749.39
2019-01-18T19:41:05.254Z,93750.56
2019-01-18T19:43:52.237Z,93747.53
2019-01-18T19:47:00.579Z,93748.46
2019-01-18T19:49:36.009Z,93753.24
2019-01-18T19:52:37.985Z,93747.75
2019-01-18T19:55:19.890Z,93750.80
2019-01-18T19:58:08.281Z,93751.84
2019-01-18T20:01:04.316Z,93761.33
2019-01-18T20:03:38.731Z,93762.47
2019-01-18T20:06:12.519Z,93763.75
2019-01-18T20:08:47.633Z,93761.79
2019-01-18T20:11:33.354Z,93762.25
2019-01-18T20:14:32.239Z,93764.57
2019-01-18T20:17:24.892Z,93761.66
2019-01-18T20:20:26.894Z,93760.14
2019-01-18T20:23:16.687Z,93757.57
2019-01-18T20:25:48.468Z,93768.56
2019-01-18T20:28:41.495Z,93767.14
2019-01-18T20:31:31.450Z,93767.39
2019-01-18T20:34:09.320Z,93764.81
2019-01-18T20:36:55.241Z,93760.25
2019-01-18T20:40:00.752Z,93765.48
2019-01-18T20:42:43.075Z,93765.95
2019-01-18T20:45:38.962Z,93766.66
2019-01-18T20:48:24.772Z,93759.58
2019-01-18T20:51:04.822Z,93768.53
2019-01-18T20:53:41.833Z,93760.62
2019-01-18T20:56:44.066Z,93763.39
2019-01-18T20:59:16.955Z,93757.57
2019-01-18T21:01:54.721Z,93761.55
2019-01-18T21:04:35.806Z,93766.00
2019-01-18T21:07:11.442Z,93758.05
2019-01-18T21:09:51.223Z,93759.44
2019-01-18T21:12:23.731Z,93761.05
2019-01-18T21:15:13.743Z,93764.34
2019-01-18T21:18:10.139Z,93765.12
2019-01-18T21:20:53.984Z,93765.11
2019-01-18T21:23:35.313Z,93762.22
2019-01-18T21:26:14.925Z,93755.22
2019-01-18T21:29:04.361Z,93757.10
2019-01-18T21:31:51.315Z,93763.52
2019-01-18T21:34:47.130Z,93761.78
2019-01-18T21:37:22.759Z,93752.20
2019-01-18T21:39:59.303Z,93749.05
2019-01-18T21:42:48.940Z,93743.57
2019-01-18T21:45:48.095Z,93740.89
2019-01-18T21:48:24.994Z,93742.85
2019-01-18T21:51:14.906Z,93742.39
2019-01-18T21:53:44.915Z,93737.50
2019-01-18T21:56:31.880Z,93739.70
2019-01-18T21:59:21.635Z,93737.50
2019-01-18T22:02:01.246Z,93740.29
2019-01-18T22:04:31.257Z,93743.11
2019-01-18T22:07:17.283Z,93742.07
2019-01-18T22:09:49.458Z,93740.65
2019-01-18T22:12:39.553Z,93734.23
2019-01-18T22:15:24.763Z,93739.83
2019-01-18T22:18:11.712Z,93730.51
2019-01-18T22:20:43.255Z,93731.66
2019-01-18T22:23:34.506Z,93731.20
2019-01-18T22:26:30.371Z,93732.02
2019-01-18T22:29:08.460Z,93734.69
2019-01-18T22:32:13.441Z,93735.77
2019-01-18T22:34:50.331Z,93732.84
2019-01-18T22:37:23.319Z,93734.13
2019-01-18T22:40:13.073Z,93737.27
2019-01-18T22:42:59.930Z,93739.26
2019-01-18T22:45:45.624Z,93740.08
2019-01-18T22:48:44.639Z,93732.81
2019-01-18T22:51:37.391Z,93732.13
2019-01-18T22:54:30.472Z,93734.23
2019-01-18T22:57:16.119Z,93734.94
2019-01-18T23:00:02.016Z,93742.16
2019-01-18T23:02:47.875Z,93732.23
2019-01-18T23:05:40.914Z,93732.36
2019-01-18T23:08:26.483Z,93733.85
2019-01-18T23:11:31.899Z,93736.76
2019-01-18T23:14:17.640Z,93734.75
2019-01-18T23:17:07.647Z,93736.26
2019-01-18T23:19:57.337Z,93731.26
2019-01-18T23:22:59.540Z,93727.02
2019-01-18T23:25:46.454Z,93727.70
2019-01-18T23:28:32.066Z,93725.50
2019-01-18T23:31:07.006Z,93726.21
2019-01-18T23:33:38.783Z,93723.06
2019-01-18T23:36:25.686Z,93719.97
2019-01-18T23:39:18.821Z,93725.11
2019-01-18T23:42:18.135Z,93715.52
2019-01-18T23:44:53.186Z,93715.50
2019-01-18T23:47:38.650Z,93714.47
2019-01-18T23:50:25.506Z,93706.89
2019-01-18T23:53:02.694Z,93706.76
2019-01-18T23:55:55.369Z,93699.33
2019-01-18T23:58:36.724Z,93701.52
